Time;durP1;ratioP1;P1;durP2;ratioP2;P2;SDS_P1;SDS_P2;PMS_P1;PMS_P2;Temp;Humidity;BMP_temperature;BMP_pressure;BME280_temperature;BME280_humidity;BME280_pressure;Samples;Min_cycle;Max_cycle;Signal;HPM_P1;HPM_P2
2021/03/17 00:02:21;;;;;;;4.20;2.03;;;3.30;99.90;;;;;;4996833;28;20690;-65
2021/03/17 00:04:49;;;;;;;4.13;1.90;;;3.20;99.90;;;;;;4987485;28;20618;-65
2021/03/17 00:07:17;;;;;;;4.17;1.90;;;3.20;99.90;;;;;;5005093;28;20634;-65
2021/03/17 00:09:45;;;;;;;5.17;2.20;;;3.20;99.90;;;;;;4993773;28;20659;-65
2021/03/17 00:12:18;;;;;;;4.50;2.00;;;3.20;99.90;;;;;;4992187;28;20678;-65
2021/03/17 00:14:47;;;;;;;6.60;2.17;;;3.20;99.90;;;;;;4994824;28;21182;-65
2021/03/17 00:17:26;;;;;;;3.77;2.60;;;3.10;99.90;;;;;;4993029;28;20719;-65
2021/03/17 00:19:58;;;;;;;3.47;2.07;;;3.10;99.90;;;;;;4976547;28;21068;-65
2021/03/17 00:22:31;;;;;;;3.80;2.20;;;3.10;99.90;;;;;;4980440;28;20640;-66
2021/03/17 00:25:05;;;;;;;5.67;2.43;;;3.10;99.90;;;;;;4996372;28;20869;-65
2021/03/17 00:27:34;;;;;;;3.87;1.93;;;3.10;99.90;;;;;;4998529;28;20669;-65
2021/03/17 00:30:06;;;;;;;10.93;2.70;;;3.00;99.90;;;;;;5013780;28;20611;-65
2021/03/17 00:32:37;;;;;;;5.93;2.60;;;3.00;99.90;;;;;;4999661;28;20640;-65
2021/03/17 00:35:15;;;;;;;3.77;2.20;;;3.00;99.90;;;;;;4996089;28;20711;-66
2021/03/17 00:37:48;;;;;;;3.53;2.57;;;2.90;99.90;;;;;;4982630;28;20640;-66
2021/03/17 00:40:16;;;;;;;3.77;2.10;;;2.90;99.90;;;;;;5006311;28;20666;-65
2021/03/17 00:42:45;;;;;;;3.57;2.80;;;2.90;99.90;;;;;;5009281;28;20640;-65
2021/03/17 00:45:11;;;;;;;4.90;2.03;;;2.80;99.90;;;;;;5005412;28;20759;-65
2021/03/17 00:47:39;;;;;;;5.50;2.10;;;2.80;99.90;;;;;;5010860;28;20608;-65
2021/03/17 00:50:10;;;;;;;4.83;2.20;;;2.80;99.90;;;;;;5009588;28;20764;-65
2021/03/17 00:52:36;;;;;;;5.00;3.00;;;2.80;99.90;;;;;;4996269;28;20744;-65
2021/03/17 00:55:07;;;;;;;3.10;2.00;;;2.70;99.90;;;;;;5014453;28;21116;-65
2021/03/17 00:57:39;;;;;;;4.03;2.17;;;2.70;99.90;;;;;;5006711;28;20619;-66
2021/03/17 01:00:09;;;;;;;3.57;2.40;;;2.70;99.90;;;;;;4991409;28;21271;-63
2021/03/17 01:02:40;;;;;;;4.20;2.80;;;2.70;99.90;;;;;;5006542;28;20644;-64
2021/03/17 01:05:37;;;;;;;5.27;2.50;;;2.70;99.90;;;;;;5005295;28;20625;-64
2021/03/17 01:08:05;;;;;;;4.37;2.83;;;2.70;99.90;;;;;;5008663;28;20608;-64
2021/03/17 01:10:39;;;;;;;6.60;2.20;;;2.70;99.90;;;;;;5021529;28;20628;-64
2021/03/17 01:13:05;;;;;;;4.43;2.10;;;2.70;99.90;;;;;;5003970;28;21179;-64
2021/03/17 01:15:31;;;;;;;4.40;2.80;;;2.70;99.90;;;;;;5020303;28;20632;-64
2021/03/17 01:17:56;;;;;;;3.73;2.60;;;2.70;99.90;;;;;;5015654;28;20620;-64
2021/03/17 01:20:30;;;;;;;6.57;2.23;;;2.60;99.90;;;;;;4991509;28;20914;-64
2021/03/17 01:22:59;;;;;;;4.53;2.00;;;2.60;99.90;;;;;;5007481;28;20225;-64
2021/03/17 01:25:35;;;;;;;4.97;2.40;;;2.60;99.90;;;;;;5011134;28;20624;-64
2021/03/17 01:28:12;;;;;;;3.60;2.30;;;2.60;99.90;;;;;;5010117;28;20904;-64
2021/03/17 01:30:55;;;;;;;3.97;2.10;;;2.60;99.90;;;;;;5007755;28;21668;-64
2021/03/17 01:33:27;;;;;;;3.33;2.00;;;2.60;99.90;;;;;;4992787;28;20672;-64
2021/03/17 01:36:02;;;;;;;3.80;2.37;;;2.50;99.90;;;;;;4989559;28;21303;-64
2021/03/17 01:38:28;;;;;;;4.27;1.97;;;2.50;99.90;;;;;;5008610;28;20678;-64
2021/03/17 01:41:01;;;;;;;4.50;2.10;;;2.50;99.90;;;;;;5008056;28;20641;-64
2021/03/17 01:43:32;;;;;;;5.70;2.60;;;2.50;99.90;;;;;;5007442;28;20237;-64
2021/03/17 01:45:58;;;;;;;3.57;2.00;;;2.50;99.90;;;;;;4990872;28;20627;-64
2021/03/17 01:48:31;;;;;;;4.13;2.97;;;2.40;99.90;;;;;;4989328;28;20624;-64
2021/03/17 01:51:04;;;;;;;5.67;2.40;;;2.40;99.90;;;;;;5013683;28;20200;-64
2021/03/17 01:53:38;;;;;;;4.17;2.30;;;2.40;99.90;;;;;;5006201;28;20683;-64
2021/03/17 01:56:22;;;;;;;5.40;2.20;;;2.30;99.90;;;;;;4997191;28;22107;-64
2021/03/17 01:58:47;;;;;;;3.20;2.23;;;2.30;99.90;;;;;;5002226;28;20674;-64
2021/03/17 02:01:18;;;;;;;6.10;2.43;;;2.30;99.90;;;;;;5003121;28;20652;-64
2021/03/17 02:03:48;;;;;;;4.63;2.70;;;2.30;99.90;;;;;;5003837;28;20232;-64
2021/03/17 02:06:17;;;;;;;4.20;2.10;;;2.30;99.90;;;;;;4997052;28;20644;-64
2021/03/17 02:08:46;;;;;;;5.30;2.20;;;2.20;99.90;;;;;;4998263;28;20667;-64
2021/03/17 02:11:15;;;;;;;5.30;3.10;;;2.20;99.90;;;;;;4998471;28;20692;-64
2021/03/17 02:14:13;;;;;;;4.73;2.37;;;2.20;99.90;;;;;;4995564;28;20746;-64
2021/03/17 02:17:13;;;;;;;5.57;2.40;;;2.20;99.90;;;;;;5008560;28;20620;-64
2021/03/17 02:20:17;;;;;;;4.73;2.60;;;2.20;99.90;;;;;;4980248;28;20641;-65
2021/03/17 02:23:00;;;;;;;4.03;2.73;;;2.10;99.90;;;;;;4995578;28;20698;-64
2021/03/17 02:26:28;;;;;;;;;;;;;;;;;;;;;
2021/03/17 02:29:03;;;;;;;4.80;2.50;;;2.00;99.90;;;;;;4935532;28;21188;-65
2021/03/17 02:31:40;;;;;;;4.30;2.47;;;2.00;99.90;;;;;;4995313;28;20655;-64
2021/03/17 02:34:33;;;;;;;6.57;2.80;;;1.90;99.90;;;;;;4995810;28;21184;-64
2021/03/17 02:37:10;;;;;;;4.63;2.37;;;1.90;99.90;;;;;;4995798;28;20593;-64
2021/03/17 02:39:53;;;;;;;3.13;2.03;;;1.90;99.90;;;;;;4994424;28;20646;-64
2021/03/17 02:42:29;;;;;;;4.50;2.70;;;1.90;99.90;;;;;;4994383;28;20652;-64
2021/03/17 02:45:08;;;;;;;7.13;2.80;;;2.00;99.90;;;;;;5002742;28;20637;-64
2021/03/17 02:47:43;;;;;;;4.33;2.37;;;2.00;99.90;;;;;;4990323;28;20744;-64
2021/03/17 02:50:17;;;;;;;5.03;2.70;;;2.10;99.90;;;;;;4994806;28;20690;-64
2021/03/17 02:52:48;;;;;;;5.30;2.30;;;2.10;99.90;;;;;;5000366;28;20648;-64
2021/03/17 02:55:18;;;;;;;2.30;1.90;;;2.10;99.90;;;;;;4996917;28;20659;-64
2021/03/17 02:57:53;;;;;;;5.90;2.40;;;2.10;99.90;;;;;;4982754;28;20776;-64
2021/03/17 03:00:34;;;;;;;5.10;2.40;;;2.10;99.90;;;;;;5011794;28;20643;-64
2021/03/17 03:03:19;;;;;;;3.40;2.23;;;2.10;99.90;;;;;;4976501;28;20772;-64
2021/03/17 03:05:56;;;;;;;6.63;2.30;;;2.10;99.90;;;;;;4993322;28;20601;-64
2021/03/17 03:08:31;;;;;;;4.77;2.37;;;2.10;99.90;;;;;;4991211;28;20690;-64
2021/03/17 03:10:58;;;;;;;4.10;2.23;;;2.10;99.90;;;;;;4995933;28;20702;-64
2021/03/17 03:13:27;;;;;;;4.07;2.70;;;2.00;99.90;;;;;;4996395;28;20754;-64
2021/03/17 03:15:55;;;;;;;4.90;2.30;;;2.00;99.90;;;;;;4992743;28;22636;-64
2021/03/17 03:18:29;;;;;;;5.73;2.40;;;2.00;99.90;;;;;;5005753;28;20639;-64
2021/03/17 03:21:04;;;;;;;3.17;2.10;;;2.00;99.90;;;;;;5007698;28;20624;-64
2021/03/17 03:23:32;;;;;;;4.20;2.33;;;2.00;99.90;;;;;;4994259;28;20695;-64
2021/03/17 03:26:17;;;;;;;3.33;2.27;;;2.00;99.90;;;;;;4995702;28;21147;-64
2021/03/17 03:28:45;;;;;;;5.17;2.30;;;1.90;99.90;;;;;;4997918;28;20632;-64
2021/03/17 03:31:11;;;;;;;5.63;2.40;;;2.00;99.90;;;;;;4993813;28;20624;-64
2021/03/17 03:33:46;;;;;;;4.93;2.50;;;1.90;99.90;;;;;;4992080;28;20640;-64
2021/03/17 03:36:26;;;;;;;4.20;2.40;;;1.90;99.90;;;;;;5004406;28;20235;-63
2021/03/17 03:38:59;;;;;;;4.63;2.60;;;1.90;99.90;;;;;;4994457;28;20731;-64
2021/03/17 03:41:32;;;;;;;5.10;2.70;;;1.90;99.90;;;;;;4996616;28;20680;-64
2021/03/17 03:44:21;;;;;;;7.83;2.40;;;1.80;99.90;;;;;;4997950;28;20657;-64
2021/03/17 03:46:56;;;;;;;4.27;2.27;;;1.80;99.90;;;;;;4993223;28;20819;-64
2021/03/17 03:49:27;;;;;;;3.20;2.17;;;1.80;99.90;;;;;;4994348;28;20796;-64
2021/03/17 03:52:06;;;;;;;4.30;2.70;;;1.80;99.90;;;;;;4994433;28;20660;-64
2021/03/17 03:54:38;;;;;;;5.40;3.00;;;1.80;99.90;;;;;;4994181;28;21049;-64
2021/03/17 04:00:16;;;;;;;5.13;2.40;;;1.80;99.90;;;;;;5008254;28;20593;-64
2021/03/17 04:02:54;;;;;;;4.67;2.50;;;1.80;99.90;;;;;;5006729;28;20636;-64
2021/03/17 04:05:25;;;;;;;2.50;2.07;;;1.70;99.90;;;;;;5004198;28;20715;-64
2021/03/17 04:07:56;;;;;;;5.17;2.40;;;1.70;99.90;;;;;;5006000;28;20605;-63
2021/03/17 04:10:34;;;;;;;5.13;2.40;;;1.70;99.90;;;;;;5007826;28;20620;-64
2021/03/17 04:13:12;;;;;;;2.60;2.40;;;1.70;99.90;;;;;;5009932;28;20667;-64
2021/03/17 04:15:42;;;;;;;5.67;2.47;;;1.70;99.90;;;;;;5011601;28;20630;-64
2021/03/17 04:18:16;;;;;;;3.37;2.30;;;1.70;99.90;;;;;;5010300;28;21396;-64
2021/03/17 04:21:12;;;;;;;3.40;2.20;;;1.60;99.90;;;;;;5010478;28;21187;-64
2021/03/17 04:23:43;;;;;;;2.23;1.90;;;1.70;99.90;;;;;;5004338;28;20700;-64
2021/03/17 04:26:26;;;;;;;3.10;2.20;;;1.60;99.90;;;;;;4991727;28;20633;-63
2021/03/17 04:28:56;;;;;;;4.03;2.40;;;1.60;99.90;;;;;;5006951;28;20616;-63
2021/03/17 04:31:28;;;;;;;3.80;2.40;;;1.60;99.90;;;;;;5012606;28;20627;-64
2021/03/17 04:33:55;;;;;;;6.23;2.53;;;1.60;99.90;;;;;;5008942;28;21159;-64
2021/03/17 04:36:35;;;;;;;9.43;2.90;;;1.60;99.90;;;;;;4991636;28;20636;-64
2021/03/17 04:39:06;;;;;;;4.37;2.80;;;1.60;99.90;;;;;;5010323;28;20701;-65
2021/03/17 04:41:37;;;;;;;4.27;2.67;;;1.50;99.90;;;;;;5019248;28;21150;-64
2021/03/17 04:44:15;;;;;;;4.37;2.73;;;1.50;99.90;;;;;;4988168;28;20827;-64
2021/03/17 04:46:47;;;;;;;4.43;2.30;;;1.50;99.90;;;;;;5001660;28;20581;-64
2021/03/17 04:49:18;;;;;;;5.50;2.30;;;1.50;99.90;;;;;;5004569;28;20877;-64
2021/03/17 04:51:50;;;;;;;5.63;2.90;;;1.50;99.90;;;;;;4996936;28;20710;-64
2021/03/17 04:54:39;;;;;;;4.53;2.40;;;1.50;99.90;;;;;;4995093;28;21010;-64
2021/03/17 04:57:07;;;;;;;6.20;3.03;;;1.50;99.90;;;;;;4997209;28;20688;-64
2021/03/17 04:59:46;;;;;;;3.03;2.80;;;1.50;99.90;;;;;;4986558;28;20621;-64
2021/03/17 05:02:13;;;;;;;5.63;3.07;;;1.50;99.90;;;;;;5010978;28;20639;-64
2021/03/17 05:04:43;;;;;;;4.00;2.77;;;1.40;99.90;;;;;;5008126;28;20685;-64
2021/03/17 05:07:20;;;;;;;4.63;3.10;;;1.50;99.90;;;;;;4990968;28;20624;-64
2021/03/17 05:09:53;;;;;;;3.80;2.73;;;1.40;99.90;;;;;;5008360;28;20591;-64
2021/03/17 05:12:28;;;;;;;4.97;2.50;;;1.40;99.90;;;;;;4984928;28;20642;-65
2021/03/17 05:14:54;;;;;;;2.73;2.20;;;1.40;99.90;;;;;;4997443;28;20656;-64
2021/03/17 05:17:26;;;;;;;7.60;2.83;;;1.40;99.90;;;;;;4997144;23;20704;-67
2021/03/17 05:20:02;;;;;;;4.10;2.73;;;1.40;99.90;;;;;;4987643;28;20539;-67
2021/03/17 05:22:34;;;;;;;7.50;2.87;;;1.40;99.90;;;;;;4976645;28;21226;-66
2021/03/17 05:25:25;;;;;;;4.87;2.83;;;1.40;99.90;;;;;;4977834;28;20914;-65
2021/03/17 05:27:54;;;;;;;4.83;2.90;;;1.40;99.90;;;;;;4980030;28;20598;-67
2021/03/17 05:30:26;;;;;;;3.80;2.87;;;1.40;99.90;;;;;;4985492;28;20978;-71
2021/03/17 05:32:56;;;;;;;4.40;2.57;;;1.30;99.90;;;;;;4997403;28;20666;-66
2021/03/17 05:35:39;;;;;;;;;;;;;;;;;;;;;
2021/03/17 05:38:18;;;;;;;;;;;;;;;;;;;;;
2021/03/17 05:41:17;;;;;;;5.80;2.90;;;1.30;99.90;;;;;;4986627;28;20825;-65
2021/03/17 05:43:53;;;;;;;5.47;2.93;;;1.30;99.90;;;;;;4981286;28;20665;-66
2021/03/17 05:46:22;;;;;;;9.50;3.30;;;1.30;99.90;;;;;;4980836;28;21147;-67
2021/03/17 05:48:53;;;;;;;4.20;3.00;;;1.30;99.90;;;;;;4982154;28;20749;-66
2021/03/17 05:51:22;;;;;;;3.37;3.07;;;1.30;99.90;;;;;;4978188;28;21236;-65
2021/03/17 05:54:01;;;;;;;5.27;2.87;;;1.30;99.90;;;;;;4988800;28;20650;-65
2021/03/17 05:56:30;;;;;;;3.80;2.90;;;1.30;99.90;;;;;;4983432;28;20641;-66
2021/03/17 05:59:02;;;;;;;5.73;3.10;;;1.30;99.90;;;;;;4998337;28;21210;-67
2021/03/17 06:01:31;;;;;;;5.40;3.60;;;1.30;99.90;;;;;;4982531;28;20585;-67
2021/03/17 06:04:04;;;;;;;3.97;3.10;;;1.30;99.90;;;;;;4976690;28;20636;-67
2021/03/17 06:06:41;;;;;;;4.70;3.40;;;1.30;99.90;;;;;;4980710;28;20743;-66
2021/03/17 06:09:09;;;;;;;7.10;3.40;;;1.30;99.90;;;;;;4986288;28;20608;-66
2021/03/17 06:11:40;;;;;;;6.70;4.03;;;1.30;99.90;;;;;;4965811;28;20661;-67
2021/03/17 06:14:11;;;;;;;5.27;3.00;;;1.30;99.90;;;;;;4969310;28;21712;-67
2021/03/17 06:16:39;;;;;;;2.97;2.67;;;1.30;99.90;;;;;;4990990;28;21005;-67
2021/03/17 06:19:07;;;;;;;3.83;3.10;;;1.30;99.90;;;;;;4983703;28;20972;-67
2021/03/17 06:21:38;;;;;;;5.87;3.50;;;1.30;99.90;;;;;;4988759;28;20621;-66
2021/03/17 06:24:05;;;;;;;3.67;3.10;;;1.30;99.90;;;;;;4978026;28;20988;-65
2021/03/17 06:26:33;;;;;;;8.40;3.93;;;1.30;99.90;;;;;;4979247;28;20653;-67
2021/03/17 06:28:59;;;;;;;4.77;3.43;;;1.30;99.90;;;;;;4988268;28;20609;-65
2021/03/17 06:31:27;;;;;;;5.37;3.20;;;1.30;99.90;;;;;;4988138;28;20705;-65
2021/03/17 06:33:53;;;;;;;5.13;3.60;;;1.30;99.90;;;;;;4981304;28;20289;-65
2021/03/17 06:36:24;;;;;;;5.83;3.40;;;1.40;99.90;;;;;;4990388;28;20661;-66
2021/03/17 06:38:50;;;;;;;7.30;3.90;;;1.40;99.90;;;;;;4981757;28;21149;-64
2021/03/17 06:41:18;;;;;;;7.30;3.93;;;1.40;99.90;;;;;;4968200;28;20678;-65
2021/03/17 06:43:48;;;;;;;10.50;4.13;;;1.50;99.90;;;;;;4966310;28;21404;-64
2021/03/17 06:46:19;;;;;;;6.00;3.67;;;1.50;99.90;;;;;;4967538;28;21270;-65
2021/03/17 06:48:45;;;;;;;7.17;3.93;;;1.50;99.90;;;;;;4982038;28;20656;-65
2021/03/17 06:51:15;;;;;;;7.70;3.90;;;1.60;99.90;;;;;;4980833;28;20625;-65
2021/03/17 06:53:51;;;;;;;8.30;4.20;;;1.60;99.90;;;;;;4966747;28;20320;-67
2021/03/17 06:56:19;;;;;;;6.37;4.30;;;1.60;99.90;;;;;;4967374;28;21313;-66
2021/03/17 06:58:47;;;;;;;9.40;4.57;;;1.60;99.90;;;;;;4967959;28;20646;-64
2021/03/17 07:01:36;;;;;;;5.33;3.73;;;1.70;99.90;;;;;;4974083;28;20630;-65
2021/03/17 07:04:11;;;;;;;7.57;4.73;;;1.70;99.90;;;;;;4953446;28;20648;-65
2021/03/17 07:06:39;;;;;;;7.60;4.60;;;1.80;99.90;;;;;;4955684;28;20731;-65
2021/03/17 07:09:27;;;;;;;5.33;4.33;;;1.80;99.90;;;;;;4973747;28;21222;-65
2021/03/17 07:12:04;;;;;;;7.87;3.90;;;1.90;99.90;;;;;;4980674;28;20654;-65
2021/03/17 07:14:35;;;;;;;5.87;4.03;;;2.00;99.90;;;;;;4982397;28;21074;-65
2021/03/17 07:17:01;;;;;;;12.03;5.00;;;2.10;99.90;;;;;;4985668;28;20661;-65
2021/03/17 07:19:38;;;;;;;5.80;4.20;;;2.10;99.90;;;;;;4976009;28;20656;-66
2021/03/17 07:22:12;;;;;;;6.70;4.10;;;2.30;99.90;;;;;;4972173;28;20233;-67
2021/03/17 07:24:43;;;;;;;6.30;4.03;;;2.40;99.90;;;;;;4967758;28;20714;-65
2021/03/17 07:27:17;;;;;;;6.20;5.07;;;2.50;99.90;;;;;;4969650;28;20646;-65
2021/03/17 07:30:03;;;;;;;6.30;4.20;;;2.50;99.90;;;;;;4984842;28;20622;-67
2021/03/17 07:32:59;;;;;;;6.60;4.23;;;2.60;99.90;;;;;;4977406;28;20660;-68
2021/03/17 07:35:29;;;;;;;6.80;4.07;;;2.70;99.90;;;;;;4973772;28;20712;-67
2021/03/17 07:38:09;;;;;;;7.20;4.40;;;2.70;99.90;;;;;;4987404;28;20704;-69
2021/03/17 07:40:37;;;;;;;7.30;5.07;;;2.70;99.90;;;;;;4976147;28;20625;-68
2021/03/17 07:43:03;;;;;;;5.30;4.80;;;2.90;99.90;;;;;;4975820;28;20661;-64
2021/03/17 07:45:31;;;;;;;9.17;6.27;;;2.90;99.90;;;;;;4974699;28;22178;-68
2021/03/17 07:47:58;;;;;;;7.10;5.03;;;3.00;99.90;;;;;;4976417;28;20981;-65
2021/03/17 07:50:23;;;;;;;7.37;5.57;;;3.00;99.90;;;;;;4977194;28;20609;-65
2021/03/17 07:52:52;;;;;;;6.93;5.00;;;3.10;99.90;;;;;;4969390;28;20711;-67
2021/03/17 07:55:19;;;;;;;6.60;4.93;;;3.10;99.90;;;;;;4996583;28;20195;-68
2021/03/17 07:57:45;;;;;;;8.80;5.17;;;3.20;99.90;;;;;;4980153;28;20734;-67
2021/03/17 08:00:11;;;;;;;6.97;5.27;;;3.30;99.90;;;;;;4979233;28;20720;-68
2021/03/17 08:02:38;;;;;;;8.73;5.60;;;3.30;99.90;;;;;;4969613;28;20656;-68
2021/03/17 08:05:04;;;;;;;7.87;5.20;;;3.30;99.90;;;;;;4971910;28;20636;-67
2021/03/17 08:07:30;;;;;;;7.60;5.37;;;3.40;99.90;;;;;;4972732;28;20716;-67
2021/03/17 08:09:58;;;;;;;7.73;6.07;;;3.50;99.90;;;;;;4975623;28;20621;-67
2021/03/17 08:12:25;;;;;;;7.93;5.80;;;3.50;99.90;;;;;;4966200;28;20657;-67
2021/03/17 08:14:52;;;;;;;8.73;5.27;;;3.60;99.90;;;;;;4990339;28;20628;-67
2021/03/17 08:17:35;;;;;;;7.33;5.87;;;3.70;99.90;;;;;;4975786;28;20676;-67
2021/03/17 08:20:27;;;;;;;9.20;5.50;;;3.70;99.90;;;;;;4972607;28;20680;-67
2021/03/17 08:22:53;;;;;;;6.97;5.00;;;3.70;99.90;;;;;;4969390;28;20743;-67
2021/03/17 08:25:41;;;;;;;6.80;6.10;;;3.70;99.90;;;;;;4971038;28;20633;-67
2021/03/17 08:28:18;;;;;;;8.23;5.83;;;3.80;99.90;;;;;;5001990;28;20660;-67
2021/03/17 08:30:44;;;;;;;8.90;5.43;;;3.90;99.90;;;;;;4983615;28;21078;-67
2021/03/17 08:33:09;;;;;;;8.97;5.53;;;3.90;99.90;;;;;;4978733;28;20768;-66
2021/03/17 08:36:14;;;;;;;8.17;4.97;;;4.00;99.90;;;;;;4968815;28;21041;-66
2021/03/17 08:38:54;;;;;;;9.33;5.80;;;4.00;99.90;;;;;;4970727;28;20210;-67
2021/03/17 08:41:39;;;;;;;7.70;5.27;;;4.10;99.90;;;;;;4971522;28;20640;-66
2021/03/17 08:44:31;;;;;;;8.63;5.47;;;4.10;99.90;;;;;;4984264;28;21156;-67
2021/03/17 08:47:18;;;;;;;7.53;5.47;;;4.20;99.90;;;;;;4969165;28;20736;-67
2021/03/17 08:49:46;;;;;;;9.87;5.73;;;4.20;99.90;;;;;;4976614;28;20772;-67
2021/03/17 08:52:37;;;;;;;11.63;6.40;;;4.30;99.90;;;;;;4972869;28;20743;-67
2021/03/17 08:55:07;;;;;;;10.10;6.43;;;4.30;99.90;;;;;;4967031;28;20703;-67
2021/03/17 08:57:53;;;;;;;6.27;5.37;;;4.40;99.90;;;;;;4974111;28;20830;-68
2021/03/17 09:00:42;;;;;;;7.60;5.83;;;4.40;99.90;;;;;;4970173;28;20639;-67
2021/03/17 09:03:09;;;;;;;11.10;6.10;;;4.50;99.90;;;;;;4966333;28;20655;-66
2021/03/17 09:05:36;;;;;;;9.93;6.53;;;4.60;99.90;;;;;;4989523;28;20640;-67
2021/03/17 09:08:08;;;;;;;10.50;6.33;;;4.60;99.90;;;;;;4994085;28;20990;-67
2021/03/17 09:10:43;;;;;;;9.27;5.20;;;4.70;99.90;;;;;;4969803;28;21204;-67
2021/03/17 09:13:09;;;;;;;7.43;5.00;;;4.70;99.90;;;;;;4969733;28;20657;-67
2021/03/17 09:15:43;;;;;;;8.33;5.70;;;4.80;99.90;;;;;;4968827;28;20616;-67
2021/03/17 09:18:08;;;;;;;7.90;5.47;;;4.80;99.90;;;;;;4964058;28;20600;-67
2021/03/17 09:20:49;;;;;;;8.63;5.80;;;4.90;99.90;;;;;;4973422;28;21017;-68
2021/03/17 09:23:22;;;;;;;11.20;6.30;;;4.90;99.90;;;;;;4970980;28;20232;-67
2021/03/17 09:25:57;;;;;;;9.10;6.30;;;4.90;99.90;;;;;;4970008;28;21037;-67
2021/03/17 09:28:32;;;;;;;7.10;5.40;;;4.90;99.90;;;;;;4970775;28;20621;-67
2021/03/17 09:30:59;;;;;;;8.70;6.23;;;4.90;99.90;;;;;;4966176;28;20644;-67
2021/03/17 09:33:26;;;;;;;7.00;5.60;;;4.90;99.90;;;;;;4969989;28;20668;-68
2021/03/17 09:35:53;;;;;;;9.63;5.90;;;5.00;99.90;;;;;;4963237;28;20756;-67
2021/03/17 09:38:20;;;;;;;7.43;6.17;;;5.10;99.90;;;;;;4966792;28;20824;-68
2021/03/17 09:40:53;;;;;;;9.80;6.00;;;5.10;99.90;;;;;;4975617;28;20618;-67
2021/03/17 09:43:33;;;;;;;9.80;6.37;;;5.20;99.90;;;;;;4983558;28;20808;-67
2021/03/17 09:46:00;;;;;;;9.60;7.03;;;5.30;99.90;;;;;;4968689;28;21293;-67
2021/03/17 09:48:29;;;;;;;11.27;6.73;;;5.40;99.90;;;;;;4969501;28;21406;-67
2021/03/17 09:50:57;;;;;;;10.60;6.80;;;5.50;99.90;;;;;;4975150;28;20617;-67
2021/03/17 09:53:23;;;;;;;12.80;6.93;;;5.60;99.90;;;;;;4970884;28;21512;-67
2021/03/17 09:55:49;;;;;;;9.53;6.83;;;5.60;99.90;;;;;;4968262;28;20696;-67
2021/03/17 09:58:15;;;;;;;12.17;7.93;;;5.70;99.90;;;;;;4973207;28;20677;-67
2021/03/17 10:00:41;;;;;;;8.77;7.03;;;5.90;99.90;;;;;;4969673;28;20222;-67
2021/03/17 10:03:12;;;;;;;8.97;6.87;;;6.00;99.90;;;;;;4969983;28;20218;-67
2021/03/17 10:05:39;;;;;;;9.30;7.70;;;6.00;99.90;;;;;;4967594;28;20578;-67
2021/03/17 10:08:05;;;;;;;9.17;7.83;;;6.10;99.90;;;;;;4966780;28;21190;-67
2021/03/17 10:10:31;;;;;;;10.53;7.63;;;6.20;99.90;;;;;;4965976;28;20632;-67
2021/03/17 10:12:57;;;;;;;11.23;7.90;;;6.40;99.90;;;;;;4967509;28;20778;-66
2021/03/17 10:15:24;;;;;;;8.00;6.63;;;6.30;99.90;;;;;;4968560;28;20195;-66
2021/03/17 10:17:52;;;;;;;9.60;6.63;;;6.50;99.90;;;;;;4974768;28;21336;-66
2021/03/17 10:20:21;;;;;;;10.50;7.23;;;6.50;99.90;;;;;;4981538;28;20618;-67
2021/03/17 10:22:49;;;;;;;7.57;6.30;;;6.60;99.90;;;;;;4968644;28;20665;-66
2021/03/17 10:25:17;;;;;;;8.33;6.80;;;6.70;99.90;;;;;;4986564;28;21231;-67
2021/03/17 10:27:45;;;;;;;9.50;6.47;;;6.90;99.90;;;;;;5001393;28;20669;-66
2021/03/17 10:30:25;;;;;;;9.73;6.87;;;7.00;99.90;;;;;;4988093;28;20609;-67
2021/03/17 10:32:52;;;;;;;7.57;6.73;;;7.10;99.90;;;;;;4965658;28;20661;-67
2021/03/17 10:35:18;;;;;;;10.80;7.40;;;7.10;99.90;;;;;;4970436;28;20617;-67
2021/03/17 10:37:45;;;;;;;9.17;6.53;;;7.10;99.90;;;;;;4986936;28;21026;-71
2021/03/17 10:40:18;;;;;;;9.40;6.63;;;7.20;99.90;;;;;;4974542;28;20717;-66
2021/03/17 10:42:43;;;;;;;11.03;6.53;;;7.20;99.90;;;;;;4964674;28;20751;-67
2021/03/17 10:45:18;;;;;;;10.33;6.83;;;7.30;99.90;;;;;;4967907;28;20694;-68
2021/03/17 10:47:45;;;;;;;8.70;7.03;;;7.30;99.90;;;;;;4969978;28;20202;-67
2021/03/17 10:50:14;;;;;;;11.40;7.47;;;7.40;99.90;;;;;;4969823;28;20629;-68
2021/03/17 10:52:46;;;;;;;11.97;7.50;;;7.60;99.90;;;;;;4981654;28;20805;-67
2021/03/17 10:55:38;;;;;;;10.63;7.30;;;7.80;99.90;;;;;;4967032;28;20621;-66
2021/03/17 10:58:16;;;;;;;10.90;7.10;;;7.70;99.90;;;;;;4964240;28;20749;-67
2021/03/17 11:00:49;;;;;;;8.43;6.13;;;7.80;99.90;;;;;;4966064;28;20720;-67
2021/03/17 11:03:27;;;;;;;8.77;7.30;;;8.00;99.90;;;;;;4981806;28;20757;-67
2021/03/17 11:06:09;;;;;;;8.83;6.63;;;8.10;99.90;;;;;;4984715;28;20648;-67
2021/03/17 11:08:34;;;;;;;8.90;6.53;;;8.30;99.90;;;;;;4979678;28;20644;-67
2021/03/17 11:11:04;;;;;;;9.33;7.50;;;8.40;99.90;;;;;;4967538;28;21003;-67
2021/03/17 11:13:31;;;;;;;8.27;6.90;;;8.50;99.90;;;;;;4976093;28;20728;-67
2021/03/17 11:16:03;;;;;;;7.97;6.90;;;8.50;99.90;;;;;;4980540;28;20667;-66
2021/03/17 11:18:30;;;;;;;11.47;8.00;;;8.60;99.90;;;;;;4976002;28;20655;-67
2021/03/17 11:21:00;;;;;;;8.33;7.53;;;8.60;99.90;;;;;;4978847;28;20706;-67
2021/03/17 11:23:37;;;;;;;7.80;7.00;;;8.60;99.90;;;;;;4977319;28;20672;-67
2021/03/17 11:26:05;;;;;;;11.07;6.70;;;8.70;99.90;;;;;;4976173;28;21015;-67
2021/03/17 11:28:39;;;;;;;9.10;6.53;;;8.90;99.90;;;;;;4975614;28;20628;-67
2021/03/17 11:31:07;;;;;;;8.23;6.13;;;9.00;99.90;;;;;;4987773;28;20667;-67
2021/03/17 11:33:33;;;;;;;8.00;5.57;;;9.20;99.90;;;;;;4990603;28;20659;-68
2021/03/17 11:36:01;;;;;;;7.03;6.23;;;9.30;99.90;;;;;;4978501;28;20752;-69
2021/03/17 11:38:27;;;;;;;7.07;6.17;;;9.40;99.90;;;;;;4971068;28;20647;-67
2021/03/17 11:40:54;;;;;;;6.93;6.17;;;9.50;99.90;;;;;;4968522;28;21194;-68
2021/03/17 11:43:30;;;;;;;10.20;5.83;;;9.70;99.90;;;;;;4965908;28;20723;-67
2021/03/17 11:45:57;;;;;;;6.97;5.60;;;9.80;99.90;;;;;;4975750;28;21005;-68
2021/03/17 11:48:24;;;;;;;6.10;5.20;;;9.90;99.90;;;;;;4980041;28;20652;-67
2021/03/17 11:50:53;;;;;;;10.53;8.10;;;10.00;99.90;;;;;;4972155;28;20617;-64
2021/03/17 11:53:19;;;;;;;6.00;5.40;;;10.20;99.90;;;;;;4968750;28;20655;-68
2021/03/17 11:55:45;;;;;;;6.13;5.03;;;10.50;99.90;;;;;;4968528;28;20621;-68
2021/03/17 11:58:12;;;;;;;5.83;5.07;;;10.70;99.90;;;;;;4972265;28;21096;-68
2021/03/17 12:00:40;;;;;;;6.17;5.30;;;10.70;99.90;;;;;;4984434;28;20623;-68
2021/03/17 12:03:06;;;;;;;5.37;4.83;;;10.70;99.90;;;;;;4978202;28;20999;-68
2021/03/17 12:05:32;;;;;;;4.40;4.07;;;10.80;99.90;;;;;;4963985;28;20716;-68
2021/03/17 12:07:57;;;;;;;5.10;4.03;;;10.90;99.90;;;;;;4967261;28;20618;-68
2021/03/17 12:10:25;;;;;;;4.67;3.73;;;11.20;99.90;;;;;;4965127;28;20265;-68
2021/03/17 12:12:50;;;;;;;5.47;4.43;;;11.30;99.90;;;;;;4964191;28;20232;-68
2021/03/17 12:15:19;;;;;;;4.27;3.87;;;11.50;99.90;;;;;;4966077;28;20622;-68
2021/03/17 12:17:45;;;;;;;4.27;3.70;;;11.70;99.90;;;;;;4967457;28;20660;-68
2021/03/17 12:20:12;;;;;;;4.77;3.40;;;11.90;99.90;;;;;;4972505;28;20845;-68
2021/03/17 12:22:38;;;;;;;4.53;4.07;;;12.10;99.90;;;;;;4975994;28;20672;-67
2021/03/17 12:25:05;;;;;;;4.47;3.60;;;12.40;99.90;;;;;;4971034;28;20717;-68
2021/03/17 12:27:33;;;;;;;3.40;3.10;;;12.60;99.90;;;;;;4973983;28;20604;-67
2021/03/17 12:29:59;;;;;;;4.80;3.47;;;12.80;99.90;;;;;;4985489;28;21073;-67
2021/03/17 12:32:25;;;;;;;4.20;3.80;;;13.10;99.90;;;;;;4968409;28;20687;-68
2021/03/17 12:34:53;;;;;;;4.50;3.83;;;13.20;99.90;;;;;;4974926;28;20613;-67
2021/03/17 12:37:19;;;;;;;4.50;4.10;;;13.30;99.90;;;;;;4971877;28;20644;-67
2021/03/17 12:39:44;;;;;;;4.07;3.27;;;13.40;99.90;;;;;;4968180;28;21071;-67
2021/03/17 12:42:10;;;;;;;3.30;3.00;;;13.70;99.90;;;;;;4978576;28;20629;-67
2021/03/17 12:44:37;;;;;;;3.80;3.40;;;13.90;99.90;;;;;;4976823;28;20592;-67
2021/03/17 12:47:04;;;;;;;4.13;3.20;;;14.90;99.90;;;;;;4975644;28;20652;-68
2021/03/17 12:49:30;;;;;;;4.40;3.47;;;16.20;99.90;;;;;;4969414;28;20672;-68
2021/03/17 12:51:56;;;;;;;3.93;3.40;;;17.60;99.90;;;;;;4968984;28;20648;-67
2021/03/17 12:54:22;;;;;;;3.27;2.70;;;18.50;99.90;;;;;;4973639;28;20622;-68
2021/03/17 12:56:48;;;;;;;4.27;3.37;;;19.20;97.50;;;;;;4973775;28;20210;-68
2021/03/17 12:59:13;;;;;;;3.13;2.80;;;20.00;95.00;;;;;;4973098;28;20524;-68
2021/03/17 13:01:39;;;;;;;3.20;2.90;;;20.80;92.90;;;;;;4977612;28;20281;-68
2021/03/17 13:04:04;;;;;;;4.60;3.17;;;21.00;85.70;;;;;;4990947;28;22065;-69
2021/03/17 13:06:31;;;;;;;4.13;2.60;;;20.90;82.20;;;;;;4980775;28;20209;-68
2021/03/17 13:09:01;;;;;;;4.17;3.87;;;20.30;79.70;;;;;;4972965;28;20195;-69
2021/03/17 13:11:27;;;;;;;19.20;17.33;;;19.80;85.00;;;;;;4975005;28;20798;-69
2021/03/17 13:13:55;;;;;;;6.33;5.83;;;19.80;81.30;;;;;;4979976;28;20713;-68
2021/03/17 13:16:21;;;;;;;3.40;3.10;;;19.40;80.50;;;;;;4970329;28;20253;-68
2021/03/17 13:18:48;;;;;;;2.70;2.50;;;18.90;79.00;;;;;;4971863;28;20597;-69
2021/03/17 13:21:14;;;;;;;2.37;2.17;;;18.30;76.90;;;;;;4966099;28;20632;-68
2021/03/17 13:23:39;;;;;;;2.10;1.90;;;17.70;77.40;;;;;;4962229;28;22633;-70
2021/03/17 13:26:05;;;;;;;2.50;2.30;;;17.10;80.50;;;;;;4973599;28;20206;-70
2021/03/17 13:28:30;;;;;;;3.87;2.67;;;16.60;79.80;;;;;;4975684;28;20191;-70